Time,TemperatureF,DewpointF,PressureIn,WindDirection,WindDirectionDegrees,WindSpeedMPH,WindSpeedGustMPH,Humidity,HourlyPrecipIn,Conditions,Clouds,dailyrainin,SoftwareType,DateUTC
2013-05-14 00:01:00,66.9,52.6,29.80,NE,41,0.0,0.0,60,0.00,CLR,SKC,0.00,WeatherDisplay:10.37,2013-05-14 05:01:00,
2013-05-14 00:06:00,66.7,52.8,29.80,NE,41,0.0,0.0,61,0.00,CLR,SKC,0.00,WeatherDisplay:10.37,2013-05-14 05:06:00,
2013-05-14 00:11:00,65.8,52.4,29.80,North,5,0.0,0.0,62,0.00,CLR,SKC,0.00,WeatherDisplay:10.37,2013-05-14 05:11:00,
2013-05-14 00:16:00,65.2,52.7,29.80,North,4,0.0,0.0,64,0.00,CLR,SKC,0.00,WeatherDisplay:10.37,2013-05-14 05:16:00,
2013-05-14 00:21:00,64.8,52.3,29.80,North,0,0.0,0.0,64,0.00,CLR,SKC,0.00,WeatherDisplay:10.37,2013-05-14 05:21:00,
2013-05-14 00:26:00,65.3,52.8,29.80,SW,221,0.0,0.0,64,0.00,CLR,SKC,0.00,WeatherDisplay:10.37,2013-05-14 05:26:00,
2013-05-14 00:31:00,66.1,53.1,29.80,SE,136,0.0,0.0,63,0.00,CLR,SKC,0.00,WeatherDisplay:10.37,2013-05-14 05:31:00,
2013-05-14 00:36:00,66.7,52.8,29.80,SE,134,2.3,2.3,61,0.00,CLR,SKC,0.00,WeatherDisplay:10.37,2013-05-14 05:36:00,
2013-05-14 00:41:00,68.0,53.1,29.79,SSE,148,3.5,3.5,59,0.00,CLR,SKC,0.00,WeatherDisplay:10.37,2013-05-14 05:41:00,
2013-05-14 00:46:00,68.6,53.2,29.79,SE,139,9.5,9.5,58,0.00,CLR,SKC,0.00,WeatherDisplay:10.37,2013-05-14 05:46:00,
2013-05-14 00:51:00,69.3,53.4,29.79,ESE,102,4.6,4.6,57,0.00,CLR,SKC,0.00,WeatherDisplay:10.37,2013-05-14 05:51:00,
2013-05-14 00:56:00,69.7,53.8,29.79,ESE,123,4.6,4.6,57,0.00,CLR,SKC,0.00,WeatherDisplay:10.37,2013-05-14 05:56:00,
2013-05-14 01:01:00,69.8,53.9,29.79,ESE,122,6.4,6.4,57,0.00,CLR,SKC,0.00,WeatherDisplay:10.37,2013-05-14 06:01:00,
2013-05-14 01:06:00,69.9,53.5,29.79,SE,125,5.8,5.8,56,0.00,CLR,SKC,0.00,WeatherDisplay:10.37,2013-05-14 06:06:00,
2013-05-14 01:11:00,69.9,54.0,29.78,ESE,122,3.5,3.5,57,0.00,CLR,SKC,0.00,WeatherDisplay:10.37,2013-05-14 06:11:00,
2013-05-14 01:17:00,69.7,53.8,29.78,ESE,122,5.8,5.8,57,0.00,CLR,SKC,0.00,WeatherDisplay:10.37,2013-05-14 06:17:00,
2013-05-14 01:22:00,69.7,54.3,29.78,SE,126,5.8,5.8,58,0.00,CLR,SKC,0.00,WeatherDisplay:10.37,2013-05-14 06:22:00,
2013-05-14 01:27:00,69.7,54.3,29.78,ESE,113,4.6,4.6,58,0.00,CLR,SKC,0.00,WeatherDisplay:10.37,2013-05-14 06:27:00,
2013-05-14 01:32:00,69.6,54.2,29.77,ESE,105,6.9,6.9,58,0.00,CLR,SKC,0.00,WeatherDisplay:10.37,2013-05-14 06:32:00,
2013-05-14 01:37:00,69.6,54.2,29.77,East,101,6.9,6.9,58,0.00,CLR,SKC,0.00,WeatherDisplay:10.37,2013-05-14 06:37:00,
2013-05-14 01:42:00,69.5,54.5,29.77,SSE,148,3.5,3.5,59,0.00,CLR,SKC,0.00,WeatherDisplay:10.37,2013-05-14 06:42:00,
2013-05-14 01:47:00,69.5,54.5,29.77,SE,135,5.3,5.3,59,0.00,CLR,SKC,0.00,WeatherDisplay:10.37,2013-05-14 06:47:00,
2013-05-14 01:52:00,69.7,54.7,29.77,ESE,123,9.5,9.5,59,0.00,CLR,SKC,0.00,WeatherDisplay:10.37,2013-05-14 06:52:00,
2013-05-14 01:57:00,69.8,54.8,29.77,SE,142,3.5,3.5,59,0.00,CLR,SKC,0.00,WeatherDisplay:10.37,2013-05-14 06:57:00,
2013-05-14 02:02:00,69.7,55.2,29.77,ESE,113,5.3,5.3,60,0.00,CLR,SKC,0.00,WeatherDisplay:10.37,2013-05-14 07:02:00,
2013-05-14 02:07:00,69.8,55.3,29.76,East,79,10.4,10.4,60,0.00,CLR,SKC,0.00,WeatherDisplay:10.37,2013-05-14 07:07:00,
2013-05-14 02:12:00,69.9,55.4,29.76,ESE,112,6.9,6.9,60,0.00,CLR,SKC,0.00,WeatherDisplay:10.37,2013-05-14 07:12:00,
2013-05-14 02:17:00,69.8,55.3,29.76,ESE,122,5.8,5.8,60,0.00,CLR,SKC,0.00,WeatherDisplay:10.37,2013-05-14 07:17:00,
2013-05-14 02:22:00,69.6,55.6,29.76,SE,137,7.4,7.4,61,0.00,CLR,SKC,0.00,WeatherDisplay:10.37,2013-05-14 07:22:00,
2013-05-14 02:27:00,69.5,55.5,29.76,SE,146,5.3,5.3,61,0.00,CLR,SKC,0.00,WeatherDisplay:10.37,2013-05-14 07:27:00,
2013-05-14 02:32:00,69.2,55.6,29.76,SE,139,6.9,6.9,62,0.00,CLR,SKC,0.00,WeatherDisplay:10.37,2013-05-14 07:32:00,
2013-05-14 02:37:00,69.0,55.4,29.76,SSE,159,3.5,3.5,62,0.00,CLR,SKC,0.00,WeatherDisplay:10.37,2013-05-14 07:37:00,
2013-05-14 02:42:00,68.8,55.7,29.76,South,176,1.2,1.2,63,0.00,CLR,SKC,0.00,WeatherDisplay:10.37,2013-05-14 07:42:00,
2013-05-14 02:47:00,68.4,55.3,29.75,SE,145,4.2,4.2,63,0.00,CLR,SKC,0.00,WeatherDisplay:10.37,2013-05-14 07:47:00,
2013-05-14 02:52:00,68.1,55.5,29.75,SSW,202,0.0,0.0,64,0.00,CLR,SKC,0.00,WeatherDisplay:10.37,2013-05-14 07:52:00,
2013-05-14 02:57:00,67.9,55.7,29.75,SE,129,0.0,0.0,65,0.00,CLR,SKC,0.00,WeatherDisplay:10.37,2013-05-14 07:57:00,
2013-05-14 03:02:00,67.7,55.5,29.75,SSE,148,0.0,0.0,65,0.00,CLR,SKC,0.00,WeatherDisplay:10.37,2013-05-14 08:02:00,
2013-05-14 03:07:00,67.6,55.8,29.75,SE,127,0.0,0.0,66,0.00,CLR,SKC,0.00,WeatherDisplay:10.37,2013-05-14 08:07:00,
2013-05-14 03:12:00,67.5,55.7,29.75,ESE,113,0.0,0.0,66,0.00,CLR,SKC,0.00,WeatherDisplay:10.37,2013-05-14 08:12:00,
2013-05-14 03:17:00,67.3,55.5,29.75,SE,126,0.0,0.0,66,0.00,CLR,SKC,0.00,WeatherDisplay:10.37,2013-05-14 08:17:00,
2013-05-14 03:22:00,67.3,56.0,29.74,SE,127,5.3,5.3,67,0.00,CLR,SKC,0.00,WeatherDisplay:10.37,2013-05-14 08:22:00,
2013-05-14 03:27:00,67.3,56.0,29.74,ESE,120,5.8,5.8,67,0.00,CLR,SKC,0.00,WeatherDisplay:10.37,2013-05-14 08:27:00,
2013-05-14 03:32:00,67.4,56.1,29.74,SSE,151,3.5,3.5,67,0.00,CLR,SKC,0.00,WeatherDisplay:10.37,2013-05-14 08:32:00,
2013-05-14 03:37:00,67.6,56.2,29.74,East,86,3.5,3.5,67,0.00,CLR,SKC,0.00,WeatherDisplay:10.37,2013-05-14 08:37:00,
2013-05-14 03:42:00,67.5,56.2,29.74,SE,140,2.3,2.3,67,0.00,CLR,SKC,0.00,WeatherDisplay:10.37,2013-05-14 08:42:00,
2013-05-14 03:47:00,67.5,56.2,29.74,ESE,103,4.6,4.6,67,0.00,CLR,SKC,0.00,WeatherDisplay:10.37,2013-05-14 08:47:00,
2013-05-14 03:52:00,67.3,56.0,29.74,East,95,0.0,0.0,67,0.00,CLR,SKC,0.00,WeatherDisplay:10.37,2013-05-14 08:52:00,
2013-05-14 03:57:00,67.0,56.1,29.74,NE,53,0.0,0.0,68,0.00,CLR,SKC,0.00,WeatherDisplay:10.37,2013-05-14 08:57:00,
2013-05-14 04:02:00,66.7,56.2,29.74,NE,53,0.0,0.0,69,0.00,CLR,SKC,0.00,WeatherDisplay:10.37,2013-05-14 09:02:00,
2013-05-14 04:07:00,66.4,55.9,29.74,ENE,76,0.0,0.0,69,0.00,CLR,SKC,0.00,WeatherDisplay:10.37,2013-05-14 09:07:00,
2013-05-14 04:12:00,65.8,55.7,29.73,East,90,3.5,3.5,70,0.00,CLR,SKC,0.00,WeatherDisplay:10.37,2013-05-14 09:12:00,
2013-05-14 04:18:00,65.5,55.8,29.73,ENE,65,2.3,2.3,71,0.00,CLR,SKC,0.00,WeatherDisplay:10.37,2013-05-14 09:18:00,
2013-05-14 04:23:00,65.2,55.9,29.73,ESE,110,2.3,2.3,72,0.00,CLR,SKC,0.00,WeatherDisplay:10.37,2013-05-14 09:23:00,
2013-05-14 04:28:00,65.0,55.8,29.73,East,86,2.1,2.1,72,0.00,CLR,SKC,0.00,WeatherDisplay:10.37,2013-05-14 09:28:00,
2013-05-14 04:33:00,64.8,55.9,29.73,ENE,75,0.0,0.0,73,0.00,CLR,SKC,0.00,WeatherDisplay:10.37,2013-05-14 09:33:00,
2013-05-14 04:38:00,64.5,55.7,29.73,ENE,73,0.0,0.0,73,0.00,CLR,SKC,0.00,WeatherDisplay:10.37,2013-05-14 09:38:00,
2013-05-14 04:46:00,64.2,55.7,29.73,ESE,110,0.0,0.0,74,0.00,CLR,SKC,0.00,WeatherDisplay:10.37,2013-05-14 09:46:00,
2013-05-14 04:51:00,63.7,55.3,29.73,ESE,110,0.0,0.0,74,0.00,CLR,SKC,0.00,WeatherDisplay:10.37,2013-05-14 09:51:00,
2013-05-14 04:58:00,63.2,55.5,29.73,ENE,75,0.0,0.0,76,0.00,CLR,SKC,0.00,WeatherDisplay:10.37,2013-05-14 09:58:00,
2013-05-14 05:08:00,63.6,55.9,29.72,ENE,72,3.5,3.5,76,0.00,CLR,SKC,0.00,WeatherDisplay:10.37,2013-05-14 10:08:00,
2013-05-14 05:13:00,63.5,55.4,29.72,ENE,77,3.5,3.5,75,0.00,CLR,SKC,0.00,WeatherDisplay:10.37,2013-05-14 10:13:00,
2013-05-14 05:18:00,63.4,55.7,29.72,ESE,122,11.7,11.7,76,0.00,CLR,SKC,0.00,WeatherDisplay:10.37,2013-05-14 10:18:00,
2013-05-14 05:23:00,63.6,55.5,29.72,ESE,105,2.3,2.3,75,0.00,CLR,SKC,0.00,WeatherDisplay:10.37,2013-05-14 10:23:00,
2013-05-14 05:28:00,63.0,55.3,29.72,NE,50,2.3,2.3,76,0.00,CLR,SKC,0.00,WeatherDisplay:10.37,2013-05-14 10:28:00,
2013-05-14 05:33:00,62.8,55.5,29.72,ESE,115,3.2,3.2,77,0.00,CLR,SKC,0.00,WeatherDisplay:10.37,2013-05-14 10:33:00,
2013-05-14 05:38:00,62.7,55.4,29.72,ENE,74,3.2,3.2,77,0.00,CLR,SKC,0.00,WeatherDisplay:10.37,2013-05-14 10:38:00,
2013-05-14 05:43:00,62.8,55.5,29.72,East,85,2.3,2.3,77,0.00,CLR,SKC,0.00,WeatherDisplay:10.37,2013-05-14 10:43:00,
2013-05-14 05:48:00,62.6,55.6,29.72,ENE,65,0.0,0.0,78,0.00,CLR,SKC,0.00,WeatherDisplay:10.37,2013-05-14 10:48:00,
2013-05-14 05:53:00,62.4,55.4,29.72,ENE,63,0.0,0.0,78,0.00,CLR,SKC,0.00,WeatherDisplay:10.37,2013-05-14 10:53:00,
2013-05-14 05:58:00,62.3,55.4,29.72,ENE,68,0.0,0.0,78,0.00,CLR,SKC,0.00,WeatherDisplay:10.37,2013-05-14 10:58:00,
2013-05-14 06:03:00,62.2,55.6,29.72,ENE,59,0.0,0.0,79,0.00,CLR,SKC,0.00,WeatherDisplay:10.37,2013-05-14 11:03:00,
2013-05-14 06:08:00,62.1,55.5,29.72,NE,41,0.0,0.0,79,0.00,CLR,SKC,0.00,WeatherDisplay:10.37,2013-05-14 11:08:00,
2013-05-14 06:13:00,62.1,55.5,29.72,NE,53,0.0,0.0,79,0.00,CLR,SKC,0.00,WeatherDisplay:10.37,2013-05-14 11:13:00,
2013-05-14 06:18:00,62.0,55.4,29.72,ENE,62,0.0,0.0,79,0.00,CLR,SKC,0.00,WeatherDisplay:10.37,2013-05-14 11:18:00,
2013-05-14 06:23:00,62.0,55.4,29.72,NNE,32,2.3,2.3,79,0.00,CLR,SKC,0.00,WeatherDisplay:10.37,2013-05-14 11:23:00,
2013-05-14 06:29:00,61.9,55.3,29.72,NE,52,0.0,0.0,79,0.00,CLR,SKC,0.00,WeatherDisplay:10.37,2013-05-14 11:29:00,
2013-05-14 06:34:00,62.1,55.5,29.72,NE,54,1.2,0.0,79,0.00,CLR,SKC,0.00,WeatherDisplay:10.37,2013-05-14 11:34:00,
2013-05-14 06:39:00,62.4,55.8,29.72,ENE,60,1.1,1.1,79,0.00,CLR,SKC,0.00,WeatherDisplay:10.37,2013-05-14 11:39:00,
2013-05-14 06:44:00,62.6,55.6,29.72,ENE,64,2.1,2.1,78,0.00,CLR,SKC,0.00,WeatherDisplay:10.37,2013-05-14 11:44:00,
2013-05-14 06:49:00,63.1,56.1,29.72,ENE,65,2.3,0.0,78,0.00,CLR,SKC,0.00,WeatherDisplay:10.37,2013-05-14 11:49:00,
2013-05-14 06:54:00,63.4,56.1,29.72,NE,55,0.0,0.0,77,0.00,CLR,SKC,0.00,WeatherDisplay:10.37,2013-05-14 11:54:00,
2013-05-14 06:59:00,63.6,56.3,29.72,ENE,63,4.6,4.6,77,0.00,CLR,SKC,0.00,WeatherDisplay:10.37,2013-05-14 11:59:00,
2013-05-14 07:04:00,63.8,56.1,29.72,NE,43,2.3,2.3,76,0.00,CLR,SKC,0.00,WeatherDisplay:10.37,2013-05-14 12:04:00,
2013-05-14 07:09:00,64.1,56.4,29.72,ENE,60,3.5,3.5,76,0.00,CLR,SKC,0.00,WeatherDisplay:10.37,2013-05-14 12:09:00,
2013-05-14 07:14:00,64.5,56.4,29.72,NE,54,0.0,0.0,75,0.00,CLR,SKC,0.00,WeatherDisplay:10.37,2013-05-14 12:14:00,
2013-05-14 07:19:00,64.7,56.6,29.72,ENE,62,2.1,2.1,75,0.00,CLR,SKC,0.00,WeatherDisplay:10.37,2013-05-14 12:19:00,
2013-05-14 07:24:00,65.1,56.6,29.72,ENE,73,0.0,0.0,74,0.00,CLR,SKC,0.00,WeatherDisplay:10.37,2013-05-14 12:24:00,
2013-05-14 07:29:00,65.5,57.0,29.71,ENE,73,0.0,0.0,74,0.00,CLR,SKC,0.00,WeatherDisplay:10.37,2013-05-14 12:29:00,
2013-05-14 07:34:00,66.2,57.7,29.72,ENE,64,0.0,0.0,74,0.00,CLR,SKC,0.00,WeatherDisplay:10.37,2013-05-14 12:34:00,
2013-05-14 07:39:00,66.6,57.3,29.72,East,89,0.0,0.0,72,0.00,CLR,SKC,0.00,WeatherDisplay:10.37,2013-05-14 12:39:00,
2013-05-14 07:44:00,66.8,57.5,29.72,ENE,77,3.5,3.5,72,0.00,CLR,SKC,0.00,WeatherDisplay:10.37,2013-05-14 12:44:00,
2013-05-14 07:49:00,67.1,57.8,29.72,SE,132,2.3,2.3,72,0.00,CLR,SKC,0.00,WeatherDisplay:10.37,2013-05-14 12:49:00,
2013-05-14 07:54:00,67.3,57.6,29.72,ESE,121,3.5,3.5,71,0.00,CLR,SKC,0.00,WeatherDisplay:10.37,2013-05-14 12:54:00,
2013-05-14 07:59:00,67.5,57.8,29.71,ESE,104,5.3,5.3,71,0.00,CLR,SKC,0.00,WeatherDisplay:10.37,2013-05-14 12:59:00,
2013-05-14 08:04:00,67.7,57.6,29.72,ESE,107,4.6,4.6,70,0.00,CLR,SKC,0.00,WeatherDisplay:10.37,2013-05-14 13:04:00,
2013-05-14 08:09:00,68.0,58.2,29.72,ENE,61,3.2,3.2,71,0.00,CLR,SKC,0.00,WeatherDisplay:10.37,2013-05-14 13:09:00,
2013-05-14 08:14:00,68.5,58.3,29.71,East,97,4.6,4.6,70,0.00,CLR,SKC,0.00,WeatherDisplay:10.37,2013-05-14 13:14:00,
2013-05-14 08:19:00,68.7,58.5,29.71,East,81,0.0,0.0,70,0.00,CLR,SKC,0.00,WeatherDisplay:10.37,2013-05-14 13:19:00,
2013-05-14 08:24:00,69.2,59.0,29.71,ENE,76,0.0,0.0,70,0.00,CLR,SKC,0.00,WeatherDisplay:10.37,2013-05-14 13:24:00,
2013-05-14 08:29:00,69.8,59.2,29.71,ESE,110,4.6,4.6,69,0.00,CLR,SKC,0.00,WeatherDisplay:10.37,2013-05-14 13:29:00,
2013-05-14 08:34:00,70.3,58.8,29.71,SE,124,4.6,4.6,67,0.00,CLR,SKC,0.00,WeatherDisplay:10.37,2013-05-14 13:34:00,
2013-05-14 08:39:00,70.6,59.1,29.71,ENE,59,4.6,4.6,67,0.00,CLR,SKC,0.00,WeatherDisplay:10.37,2013-05-14 13:39:00,
2013-05-14 08:44:00,71.3,59.8,29.71,East,89,0.0,0.0,67,0.00,CLR,SKC,0.00,WeatherDisplay:10.37,2013-05-14 13:44:00,
2013-05-14 08:49:00,72.4,60.4,29.71,ESE,114,2.3,2.3,66,0.00,CLR,SKC,0.00,WeatherDisplay:10.37,2013-05-14 13:49:00,
2013-05-14 08:54:00,73.2,59.4,29.71,East,79,6.9,6.9,62,0.00,CLR,SKC,0.00,WeatherDisplay:10.37,2013-05-14 13:54:00,
2013-05-14 08:59:00,74.0,60.2,29.70,ESE,120,3.5,3.5,62,0.00,CLR,SKC,0.00,WeatherDisplay:10.37,2013-05-14 13:59:00,
2013-05-14 09:04:00,74.8,60.4,29.70,ESE,115,6.9,6.9,61,0.00,CLR,SKC,0.00,WeatherDisplay:10.37,2013-05-14 14:04:00,
2013-05-14 09:09:00,75.5,59.7,29.70,East,98,6.9,6.9,58,0.00,CLR,SKC,0.00,WeatherDisplay:10.37,2013-05-14 14:09:00,
2013-05-14 09:14:00,76.2,59.4,29.70,SE,139,7.4,7.4,56,0.00,CLR,SKC,0.00,WeatherDisplay:10.37,2013-05-14 14:14:00,
2013-05-14 09:19:00,76.9,59.5,29.70,East,82,5.8,5.8,55,0.00,CLR,SKC,0.00,WeatherDisplay:10.37,2013-05-14 14:19:00,
2013-05-14 09:24:00,77.4,60.0,29.70,South,172,4.2,4.2,55,0.00,CLR,SKC,0.00,WeatherDisplay:10.37,2013-05-14 14:24:00,
2013-05-14 09:29:00,78.1,60.1,29.70,ESE,115,4.6,4.6,54,0.00,CLR,SKC,0.00,WeatherDisplay:10.37,2013-05-14 14:29:00,
2013-05-14 09:34:00,78.5,61.0,29.69,East,86,5.3,5.3,55,0.00,CLR,SKC,0.00,WeatherDisplay:10.37,2013-05-14 14:34:00,
2013-05-14 09:39:00,79.1,60.5,29.69,ENE,74,6.9,6.9,53,0.00,CLR,SKC,0.00,WeatherDisplay:10.37,2013-05-14 14:39:00,
2013-05-14 09:44:00,79.9,59.0,29.69,SE,135,7.4,7.4,49,0.00,CLR,SKC,0.00,WeatherDisplay:10.37,2013-05-14 14:44:00,
2013-05-14 09:49:00,80.4,60.1,29.69,ESE,117,5.8,5.8,50,0.00,CLR,SKC,0.00,WeatherDisplay:10.37,2013-05-14 14:49:00,
2013-05-14 09:54:00,81.1,59.0,29.69,SE,124,6.4,6.4,47,0.00,CLR,SKC,0.00,WeatherDisplay:10.37,2013-05-14 14:54:00,
2013-05-14 09:59:00,81.5,58.7,29.69,ESE,108,7.4,7.4,46,0.00,CLR,SKC,0.00,WeatherDisplay:10.37,2013-05-14 14:59:00,
2013-05-14 10:04:00,81.8,59.0,29.69,ESE,114,4.6,4.6,46,0.00,CLR,SKC,0.00,WeatherDisplay:10.37,2013-05-14 15:04:00,
2013-05-14 10:09:00,82.4,58.3,29.69,SE,126,8.5,8.5,44,0.00,CLR,SKC,0.00,WeatherDisplay:10.37,2013-05-14 15:09:00,
2013-05-14 10:14:00,83.0,59.5,29.69,ENE,65,6.9,6.9,45,0.00,CLR,SKC,0.00,WeatherDisplay:10.37,2013-05-14 15:14:00,
2013-05-14 10:19:00,83.7,59.5,29.68,ESE,113,5.3,5.3,44,0.00,CLR,SKC,0.00,WeatherDisplay:10.37,2013-05-14 15:19:00,
2013-05-14 10:24:00,84.4,57.4,29.68,South,169,7.4,7.4,40,0.01,RA,SKC,0.01,WeatherDisplay:10.37,2013-05-14 15:24:00,
2013-05-14 10:29:00,84.9,57.2,29.68,ESE,120,5.8,5.8,39,0.02,RA,SKC,0.02,WeatherDisplay:10.37,2013-05-14 15:29:00,
2013-05-14 10:34:00,85.5,55.5,29.68,SE,131,8.5,8.5,36,0.02,RA,SKC,0.02,WeatherDisplay:10.37,2013-05-14 15:34:00,
2013-05-14 10:39:00,85.7,57.9,29.68,East,95,7.4,7.4,39,0.02,CLR,SKC,0.02,WeatherDisplay:10.37,2013-05-14 15:39:00,
2013-05-14 10:44:00,85.8,58.0,29.68,ESE,110,8.1,8.1,39,0.02,CLR,SKC,0.02,WeatherDisplay:10.37,2013-05-14 15:44:00,
2013-05-14 10:49:00,86.0,55.9,29.68,East,99,8.5,8.5,36,0.02,CLR,SKC,0.02,WeatherDisplay:10.37,2013-05-14 15:49:00,
2013-05-14 10:54:00,86.3,57.0,29.68,ENE,67,7.4,7.4,37,0.02,CLR,SKC,0.02,WeatherDisplay:10.37,2013-05-14 15:54:00,
2013-05-14 10:59:00,86.7,57.3,29.68,East,86,6.9,6.9,37,0.02,CLR,SKC,0.02,WeatherDisplay:10.37,2013-05-14 15:59:00,
2013-05-14 11:04:00,87.2,57.0,29.68,NE,53,7.4,7.4,36,0.02,CLR,SKC,0.02,WeatherDisplay:10.37,2013-05-14 16:04:00,
2013-05-14 11:09:00,87.2,57.0,29.68,East,85,8.1,8.1,36,0.02,CLR,SKC,0.02,WeatherDisplay:10.37,2013-05-14 16:09:00,
2013-05-14 11:14:00,87.5,57.3,29.68,ESE,114,6.4,6.4,36,0.02,CLR,SKC,0.02,WeatherDisplay:10.37,2013-05-14 16:14:00,
2013-05-14 11:19:00,87.9,57.6,29.68,ENE,59,6.9,6.9,36,0.02,CLR,SKC,0.02,WeatherDisplay:10.37,2013-05-14 16:19:00,
2013-05-14 11:24:00,88.1,57.8,29.68,East,82,8.1,8.1,36,0.01,CLR,SKC,0.02,WeatherDisplay:10.37,2013-05-14 16:24:00,
2013-05-14 11:29:00,88.3,57.2,29.68,ESE,103,9.2,9.2,35,0.00,CLR,SKC,0.02,WeatherDisplay:10.37,2013-05-14 16:29:00,
2013-05-14 11:34:00,88.9,57.7,29.67,East,84,8.1,8.1,35,0.00,CLR,SKC,0.02,WeatherDisplay:10.37,2013-05-14 16:34:00,
2013-05-14 11:39:00,89.5,58.2,29.67,ENE,71,6.9,6.9,35,0.00,CLR,SKC,0.02,WeatherDisplay:10.37,2013-05-14 16:39:00,
2013-05-14 11:44:00,89.9,55.2,29.67,SE,127,12.7,12.7,31,0.00,CLR,SKC,0.02,WeatherDisplay:10.37,2013-05-14 16:44:00,
2013-05-14 11:50:00,90.2,55.5,29.67,ESE,123,11.7,11.7,31,0.00,CLR,SKC,0.02,WeatherDisplay:10.37,2013-05-14 16:50:00,
2013-05-14 11:55:00,90.6,56.7,29.67,ESE,107,11.7,11.7,32,0.00,CLR,SKC,0.02,WeatherDisplay:10.37,2013-05-14 16:55:00,
2013-05-14 12:00:00,90.8,58.6,29.67,East,94,9.5,9.5,34,0.00,CLR,SKC,0.02,WeatherDisplay:10.37,2013-05-14 17:00:00,
2013-05-14 12:05:00,91.2,57.2,29.67,ESE,108,11.7,11.7,32,0.00,CLR,SKC,0.00,WeatherDisplay:10.37,2013-05-14 17:05:00,
2013-05-14 12:10:00,91.3,58.2,29.67,East,94,11.7,11.7,33,0.00,RA,SKC,0.00,WeatherDisplay:10.37,2013-05-14 17:10:00,
2013-05-14 12:15:00,91.6,58.4,29.66,ENE,76,11.7,11.7,33,0.00,RA,SKC,0.00,WeatherDisplay:10.37,2013-05-14 17:15:00,
2013-05-14 12:20:00,91.6,57.6,29.66,East,96,9.0,14.0,32,0.00,CLR,SKC,0.00,WeatherDisplay:10.37,2013-05-14 17:20:00,
2013-05-14 12:25:00,91.6,56.7,29.66,East,84,13.8,13.8,31,0.00,CLR,SKC,0.00,WeatherDisplay:10.37,2013-05-14 17:25:00,
2013-05-14 12:30:00,91.6,55.8,29.66,East,96,15.0,15.0,30,0.00,CLR,SKC,0.00,WeatherDisplay:10.37,2013-05-14 17:30:00,
2013-05-14 12:35:00,91.7,57.7,29.66,ENE,58,12.7,12.7,32,0.00,CLR,SKC,0.00,WeatherDisplay:10.37,2013-05-14 17:35:00,
2013-05-14 12:40:00,91.9,56.9,29.65,SSE,148,9.5,9.5,31,0.00,CLR,SKC,0.00,WeatherDisplay:10.37,2013-05-14 17:40:00,
2013-05-14 12:45:00,92.2,57.2,29.65,East,81,13.8,13.8,31,0.00,CLR,SKC,0.00,WeatherDisplay:10.37,2013-05-14 17:45:00,
2013-05-14 12:50:00,92.3,56.4,29.65,ESE,102,15.9,15.9,30,0.00,CLR,SKC,0.00,WeatherDisplay:10.37,2013-05-14 17:50:00,
2013-05-14 12:55:00,92.4,55.5,29.65,ENE,68,15.0,15.0,29,0.00,CLR,SKC,0.00,WeatherDisplay:10.37,2013-05-14 17:55:00,
2013-05-14 13:00:00,92.7,55.8,29.65,East,80,12.7,12.7,29,0.00,CLR,SKC,0.00,WeatherDisplay:10.37,2013-05-14 18:00:00,
2013-05-14 13:05:00,93.0,55.1,29.65,ESE,122,12.7,12.7,28,0.00,CLR,SKC,0.00,WeatherDisplay:10.37,2013-05-14 18:05:00,
2013-05-14 13:10:00,93.3,56.3,29.64,ESE,113,12.7,12.7,29,0.00,CLR,SKC,0.00,WeatherDisplay:10.37,2013-05-14 18:10:00,
2013-05-14 13:15:00,93.5,55.5,29.64,SE,124,12.7,12.7,28,0.00,CLR,SKC,0.00,WeatherDisplay:10.37,2013-05-14 18:15:00,
2013-05-14 13:20:00,93.9,55.8,29.64,SE,131,13.8,13.8,28,0.00,CLR,SKC,0.00,WeatherDisplay:10.37,2013-05-14 18:20:00,
2013-05-14 13:25:00,94.2,55.1,29.63,ESE,116,15.0,15.0,27,0.00,CLR,SKC,0.00,WeatherDisplay:10.37,2013-05-14 18:25:00,
2013-05-14 13:30:00,94.3,56.2,29.63,ESE,116,10.4,10.4,28,0.00,CLR,SKC,0.00,WeatherDisplay:10.37,2013-05-14 18:30:00,
2013-05-14 13:35:00,94.6,53.3,29.63,SE,130,13.8,13.8,25,0.00,CLR,SKC,0.00,WeatherDisplay:10.37,2013-05-14 18:35:00,
2013-05-14 13:40:00,94.7,53.4,29.63,ESE,111,15.0,15.0,25,0.00,CLR,SKC,0.00,WeatherDisplay:10.37,2013-05-14 18:40:00,
2013-05-14 13:45:00,95.2,53.8,29.63,East,96,16.1,16.1,25,0.00,CLR,SKC,0.00,WeatherDisplay:10.37,2013-05-14 18:45:00,
2013-05-14 13:50:00,95.2,53.8,29.63,ESE,108,12.7,12.7,25,0.00,CLR,SKC,0.00,WeatherDisplay:10.37,2013-05-14 18:50:00,
2013-05-14 13:55:00,95.3,55.0,29.63,SE,130,13.8,13.8,26,0.00,CLR,SKC,0.00,WeatherDisplay:10.37,2013-05-14 18:55:00,
2013-05-14 14:00:00,95.5,53.0,29.63,SE,134,19.6,19.6,24,0.00,CLR,SKC,0.00,WeatherDisplay:10.37,2013-05-14 19:00:00,
2013-05-14 14:05:00,95.8,54.3,29.63,ENE,75,13.8,13.8,25,0.00,CLR,SKC,0.00,WeatherDisplay:10.37,2013-05-14 19:05:00,
2013-05-14 14:10:00,95.9,54.4,29.63,SE,127,17.3,17.3,25,0.00,CLR,SKC,0.00,WeatherDisplay:10.37,2013-05-14 19:10:00,
2013-05-14 14:15:00,95.9,53.3,29.62,East,101,16.1,16.1,24,0.00,CLR,SKC,0.00,WeatherDisplay:10.37,2013-05-14 19:15:00,
2013-05-14 14:20:00,96.3,56.9,29.62,SE,136,11.7,11.7,27,0.00,CLR,SKC,0.00,WeatherDisplay:10.37,2013-05-14 19:20:00,
2013-05-14 14:25:00,96.2,52.4,29.62,ENE,61,23.3,23.3,23,0.00,CLR,SKC,0.00,WeatherDisplay:10.37,2013-05-14 19:25:00,
2013-05-14 14:30:00,96.2,53.6,29.61,SSE,160,12.7,12.7,24,0.00,CLR,SKC,0.00,WeatherDisplay:10.37,2013-05-14 19:30:00,
2013-05-14 14:35:00,96.0,53.4,29.61,SE,129,20.7,20.7,24,0.00,CLR,SKC,0.00,WeatherDisplay:10.37,2013-05-14 19:35:00,
2013-05-14 14:40:00,95.9,54.4,29.61,ESE,113,19.1,19.1,25,0.00,CLR,SKC,0.00,WeatherDisplay:10.37,2013-05-14 19:40:00,
2013-05-14 14:45:00,96.1,54.6,29.61,ENE,70,15.0,15.0,25,0.00,CLR,SKC,0.00,WeatherDisplay:10.37,2013-05-14 19:45:00,
2013-05-14 14:50:00,95.8,54.3,29.61,East,82,16.1,16.1,25,0.00,CLR,SKC,0.00,WeatherDisplay:10.37,2013-05-14 19:50:00,
2013-05-14 14:55:00,95.5,55.2,29.61,East,101,15.0,15.0,26,0.00,CLR,SKC,0.00,WeatherDisplay:10.37,2013-05-14 19:55:00,
2013-05-14 15:00:00,95.5,54.1,29.61,East,98,16.1,16.1,25,0.00,CLR,SKC,0.00,WeatherDisplay:10.37,2013-05-14 20:00:00,
2013-05-14 15:05:00,95.5,54.1,29.61,East,83,19.6,19.6,25,0.00,CLR,SKC,0.00,WeatherDisplay:10.37,2013-05-14 20:05:00,
2013-05-14 15:10:00,95.4,51.7,29.61,SE,141,17.0,17.0,23,0.00,CLR,SKC,0.00,WeatherDisplay:10.37,2013-05-14 20:10:00,
2013-05-14 15:15:00,95.8,52.1,29.61,ESE,115,19.1,19.1,23,0.00,CLR,SKC,0.00,WeatherDisplay:10.37,2013-05-14 20:15:00,
2013-05-14 15:20:00,96.0,51.0,29.61,East,96,18.4,18.4,22,0.00,CLR,SKC,0.00,WeatherDisplay:10.37,2013-05-14 20:20:00,
2013-05-14 15:25:00,96.3,53.6,29.61,ESE,120,17.3,17.3,24,0.00,CLR,SKC,0.00,WeatherDisplay:10.37,2013-05-14 20:25:00,
2013-05-14 15:30:00,96.5,53.8,29.61,ESE,115,16.1,16.1,24,0.00,CLR,SKC,0.00,WeatherDisplay:10.37,2013-05-14 20:30:00,
2013-05-14 15:35:00,96.4,52.6,29.60,SE,131,16.1,16.1,23,0.00,CLR,SKC,0.00,WeatherDisplay:10.37,2013-05-14 20:35:00,
2013-05-14 15:40:00,96.6,52.7,29.60,ENE,74,15.0,15.0,23,0.00,CLR,SKC,0.00,WeatherDisplay:10.37,2013-05-14 20:40:00,
2013-05-14 15:45:00,96.5,51.4,29.60,ESE,114,15.0,15.0,22,0.00,CLR,SKC,0.00,WeatherDisplay:10.37,2013-05-14 20:45:00,
2013-05-14 15:50:00,96.6,52.7,29.60,SE,126,16.1,16.1,23,0.00,CLR,SKC,0.00,WeatherDisplay:10.37,2013-05-14 20:50:00,
2013-05-14 15:55:00,96.6,51.5,29.60,South,174,13.8,13.8,22,0.00,CLR,SKC,0.00,WeatherDisplay:10.37,2013-05-14 20:55:00,
2013-05-14 16:00:00,96.6,50.3,29.61,SE,127,23.3,23.3,21,0.00,CLR,SKC,0.00,WeatherDisplay:10.37,2013-05-14 21:00:00,
2013-05-14 16:05:00,96.7,49.0,29.60,ENE,78,20.1,20.1,20,0.00,CLR,SKC,0.00,WeatherDisplay:10.37,2013-05-14 21:05:00,
2013-05-14 16:10:00,96.7,50.3,29.60,East,100,22.3,22.3,21,0.00,CLR,SKC,0.00,WeatherDisplay:10.37,2013-05-14 21:10:00,
2013-05-14 16:15:00,96.6,50.3,29.60,SE,141,15.0,15.0,21,0.00,CLR,SKC,0.00,WeatherDisplay:10.37,2013-05-14 21:15:00,
2013-05-14 16:20:00,96.6,50.3,29.60,ESE,117,20.7,20.7,21,0.00,CLR,SKC,0.00,WeatherDisplay:10.37,2013-05-14 21:20:00,
2013-05-14 16:25:00,96.7,50.3,29.60,SE,145,15.0,15.0,21,0.00,CLR,SKC,0.00,WeatherDisplay:10.37,2013-05-14 21:25:00,
2013-05-14 16:30:00,96.7,47.7,29.60,NE,52,20.7,20.7,19,0.00,CLR,SKC,0.00,WeatherDisplay:10.37,2013-05-14 21:30:00,
2013-05-14 16:35:00,96.9,47.8,29.60,East,88,16.1,16.1,19,0.00,CLR,SKC,0.00,WeatherDisplay:10.37,2013-05-14 21:35:00,
2013-05-14 16:40:00,97.1,48.0,29.60,SE,139,16.1,16.1,19,0.00,CLR,SKC,0.00,WeatherDisplay:10.37,2013-05-14 21:40:00,
2013-05-14 16:45:00,96.9,49.2,29.60,SE,137,16.1,16.1,20,0.00,CLR,SKC,0.00,WeatherDisplay:10.37,2013-05-14 21:45:00,
2013-05-14 16:50:00,96.9,49.2,29.59,SE,127,17.0,17.0,20,0.00,CLR,SKC,0.00,WeatherDisplay:10.37,2013-05-14 21:50:00,
2013-05-14 16:55:00,96.8,47.7,29.59,ESE,123,19.6,19.6,19,0.00,CLR,SKC,0.00,WeatherDisplay:10.37,2013-05-14 21:55:00,
2013-05-14 17:00:00,96.9,49.2,29.58,SE,130,20.1,20.1,20,0.00,CLR,SKC,0.00,WeatherDisplay:10.37,2013-05-14 22:00:00,
2013-05-14 17:05:00,96.5,50.2,29.58,ENE,68,16.1,16.1,21,0.00,CLR,SKC,0.00,WeatherDisplay:10.37,2013-05-14 22:05:00,
2013-05-14 17:10:00,96.6,50.3,29.58,ESE,110,11.5,11.5,21,0.00,CLR,SKC,0.00,WeatherDisplay:10.37,2013-05-14 22:10:00,
2013-05-14 17:15:00,96.6,49.0,29.58,NE,44,23.0,23.0,20,0.00,CLR,SKC,0.00,WeatherDisplay:10.37,2013-05-14 22:15:00,
2013-05-14 17:20:00,96.6,49.0,29.58,East,81,15.0,15.0,20,0.00,CLR,SKC,0.00,WeatherDisplay:10.37,2013-05-14 22:20:00,
2013-05-14 17:25:00,97.0,49.3,29.58,SE,125,19.1,19.1,20,0.00,CLR,SKC,0.00,WeatherDisplay:10.37,2013-05-14 22:25:00,
2013-05-14 17:30:00,97.1,48.0,29.58,East,82,21.9,21.9,19,0.00,CLR,SKC,0.00,WeatherDisplay:10.37,2013-05-14 22:30:00,
2013-05-14 17:36:00,97.0,47.9,29.58,SE,129,15.0,15.0,19,0.00,CLR,SKC,0.00,WeatherDisplay:10.37,2013-05-14 22:36:00,
2013-05-14 17:41:00,96.8,49.1,29.57,ESE,123,19.6,19.6,20,0.00,CLR,SKC,0.00,WeatherDisplay:10.37,2013-05-14 22:41:00,
2013-05-14 17:46:00,96.3,50.0,29.57,SE,129,21.9,21.9,21,0.00,CLR,SKC,0.00,WeatherDisplay:10.37,2013-05-14 22:46:00,
2013-05-14 17:51:00,96.2,51.2,29.57,ESE,110,16.1,16.1,22,0.00,CLR,SKC,0.00,WeatherDisplay:10.37,2013-05-14 22:51:00,
2013-05-14 17:56:00,96.2,51.2,29.57,NE,48,17.3,17.3,22,0.00,CLR,SKC,0.00,WeatherDisplay:10.37,2013-05-14 22:56:00,
2013-05-14 18:01:00,96.0,49.8,29.58,ESE,118,21.2,21.2,21,0.00,CLR,SKC,0.00,WeatherDisplay:10.37,2013-05-14 23:01:00,
2013-05-14 18:06:00,95.8,49.6,29.58,SSE,163,20.7,20.7,21,0.00,CLR,SKC,0.00,WeatherDisplay:10.37,2013-05-14 23:06:00,
2013-05-14 18:11:00,95.5,50.6,29.58,East,90,12.7,12.7,22,0.00,CLR,SKC,0.00,WeatherDisplay:10.37,2013-05-14 23:11:00,
2013-05-14 18:16:00,95.3,50.4,29.58,SE,125,11.7,11.7,22,0.00,CLR,SKC,0.00,WeatherDisplay:10.37,2013-05-14 23:16:00,
2013-05-14 18:21:00,94.9,50.1,29.58,SE,126,17.3,17.3,22,0.00,CLR,SKC,0.00,WeatherDisplay:10.37,2013-05-14 23:21:00,
2013-05-14 18:26:00,94.7,51.1,29.58,ENE,75,23.0,23.0,23,0.00,CLR,SKC,0.00,WeatherDisplay:10.37,2013-05-14 23:26:00,
2013-05-14 18:31:00,94.5,51.0,29.58,SE,124,23.3,23.3,23,0.00,CLR,SKC,0.00,WeatherDisplay:10.37,2013-05-14 23:31:00,
2013-05-14 18:36:00,94.1,51.8,29.58,South,176,10.6,10.6,24,0.00,CLR,SKC,0.00,WeatherDisplay:10.37,2013-05-14 23:36:00,
2013-05-14 18:41:00,94.1,50.6,29.58,East,89,17.3,17.3,23,0.00,CLR,SKC,0.00,WeatherDisplay:10.37,2013-05-14 23:41:00,
2013-05-14 18:46:00,93.8,50.4,29.58,ESE,114,13.8,13.8,23,0.00,CLR,SKC,0.00,WeatherDisplay:10.37,2013-05-14 23:46:00,
2013-05-14 18:51:00,93.0,49.7,29.58,SE,136,19.6,19.6,23,0.00,CLR,SKC,0.00,WeatherDisplay:10.37,2013-05-14 23:51:00,
2013-05-14 18:56:00,92.8,50.7,29.58,ESE,112,17.3,17.3,24,0.00,CLR,SKC,0.00,WeatherDisplay:10.37,2013-05-14 23:56:00,
2013-05-14 19:01:00,92.7,51.7,29.58,ESE,122,15.9,15.9,25,0.00,CLR,SKC,0.00,WeatherDisplay:10.37,2013-05-15 00:01:00,
2013-05-14 19:06:00,92.7,51.7,29.58,ESE,112,13.8,13.8,25,0.00,CLR,SKC,0.00,WeatherDisplay:10.37,2013-05-15 00:06:00,
2013-05-14 19:11:00,92.5,53.7,29.58,ESE,123,9.5,9.5,27,0.00,CLR,SKC,0.00,WeatherDisplay:10.37,2013-05-15 00:11:00,
2013-05-14 19:16:00,92.2,52.4,29.59,ESE,118,10.4,10.4,26,0.00,CLR,SKC,0.00,WeatherDisplay:10.37,2013-05-15 00:16:00,
2013-05-14 19:21:00,92.0,52.2,29.58,East,86,8.5,8.5,26,0.00,CLR,SKC,0.00,WeatherDisplay:10.37,2013-05-15 00:21:00,
2013-05-14 19:26:00,92.1,52.3,29.59,ENE,74,6.9,6.9,26,0.00,CLR,SKC,0.00,WeatherDisplay:10.37,2013-05-15 00:26:00,
2013-05-14 19:31:00,91.5,51.8,29.59,SE,129,11.7,11.7,26,0.00,CLR,SKC,0.00,WeatherDisplay:10.37,2013-05-15 00:31:00,
2013-05-14 19:36:00,90.7,51.1,29.59,ESE,105,18.4,18.4,26,0.00,CLR,SKC,0.00,WeatherDisplay:10.37,2013-05-15 00:36:00,
2013-05-14 19:41:00,90.1,51.6,29.59,ESE,111,12.7,12.7,27,0.00,CLR,SKC,0.00,WeatherDisplay:10.37,2013-05-15 00:41:00,
2013-05-14 19:46:00,89.6,51.2,29.59,SSW,202,10.6,10.6,27,0.00,CLR,SKC,0.00,WeatherDisplay:10.37,2013-05-15 00:46:00,
2013-05-14 19:51:00,89.1,51.7,29.59,ESE,112,9.5,9.5,28,0.00,CLR,SKC,0.00,WeatherDisplay:10.37,2013-05-15 00:51:00,
2013-05-14 19:56:00,88.6,52.3,29.59,East,82,13.8,13.8,29,0.00,CLR,SKC,0.00,WeatherDisplay:10.37,2013-05-15 00:56:00,
2013-05-14 20:01:00,88.3,52.0,29.59,SE,126,10.6,10.6,29,0.00,CLR,SKC,0.00,WeatherDisplay:10.37,2013-05-15 01:01:00,
2013-05-14 20:06:00,88.1,52.8,29.59,ESE,111,13.8,13.8,30,0.00,CLR,SKC,0.00,WeatherDisplay:10.37,2013-05-15 01:06:00,
2013-05-14 20:11:00,87.8,52.5,29.59,SE,124,15.9,15.9,30,0.00,CLR,SKC,0.00,WeatherDisplay:10.37,2013-05-15 01:11:00,
2013-05-14 20:16:00,87.5,53.1,29.60,ENE,62,15.0,15.0,31,0.00,CLR,SKC,0.00,WeatherDisplay:10.37,2013-05-15 01:16:00,
2013-05-14 20:21:00,87.3,53.8,29.60,SE,127,11.7,11.7,32,0.00,CLR,SKC,0.00,WeatherDisplay:10.37,2013-05-15 01:21:00,
2013-05-14 20:26:00,86.8,53.4,29.61,ESE,108,15.0,15.0,32,0.00,CLR,SKC,0.00,WeatherDisplay:10.37,2013-05-15 01:26:00,
2013-05-14 20:31:00,86.4,53.9,29.62,SSE,156,13.8,13.8,33,0.00,CLR,SKC,0.00,WeatherDisplay:10.37,2013-05-15 01:31:00,
2013-05-14 20:36:00,86.0,54.4,29.62,East,92,9.5,9.5,34,0.00,CLR,SKC,0.00,WeatherDisplay:10.37,2013-05-15 01:36:00,
2013-05-14 20:41:00,85.5,54.7,29.63,SE,142,7.4,7.4,35,0.00,CLR,SKC,0.00,WeatherDisplay:10.37,2013-05-15 01:41:00,
2013-05-14 20:46:00,85.0,54.3,29.63,SE,127,7.4,7.4,35,0.00,CLR,SKC,0.00,WeatherDisplay:10.37,2013-05-15 01:46:00,
2013-05-14 20:51:00,84.5,53.8,29.63,SE,126,6.9,6.9,35,0.00,CLR,SKC,0.00,WeatherDisplay:10.37,2013-05-15 01:51:00,
2013-05-14 20:56:00,84.2,54.4,29.63,ESE,103,3.5,3.5,36,0.00,CLR,SKC,0.00,WeatherDisplay:10.37,2013-05-15 01:56:00,
2013-05-14 21:01:00,83.5,53.7,29.63,SSE,153,4.6,4.6,36,0.00,CLR,SKC,0.00,WeatherDisplay:10.37,2013-05-15 02:01:00,
2013-05-14 21:06:00,83.2,54.2,29.63,SE,126,7.4,7.4,37,0.00,CLR,SKC,0.00,WeatherDisplay:10.37,2013-05-15 02:06:00,
2013-05-14 21:11:00,82.9,54.0,29.64,East,91,8.5,8.5,37,0.00,CLR,SKC,0.00,WeatherDisplay:10.37,2013-05-15 02:11:00,
2013-05-14 21:16:00,82.8,53.9,29.64,SE,143,7.4,7.4,37,0.00,CLR,SKC,0.00,WeatherDisplay:10.37,2013-05-15 02:16:00,
2013-05-14 21:21:00,82.6,54.4,29.64,SE,126,5.8,5.8,38,0.00,CLR,SKC,0.00,WeatherDisplay:10.37,2013-05-15 02:21:00,
2013-05-14 21:26:00,82.2,54.8,29.64,ESE,113,6.9,6.9,39,0.00,CLR,SKC,0.00,WeatherDisplay:10.37,2013-05-15 02:26:00,
2013-05-14 21:31:00,81.9,54.5,29.64,ENE,70,8.5,8.5,39,0.00,CLR,SKC,0.00,WeatherDisplay:10.37,2013-05-15 02:31:00,
2013-05-14 21:36:00,81.4,54.8,29.64,ENE,75,6.9,6.9,40,0.00,CLR,SKC,0.00,WeatherDisplay:10.37,2013-05-15 02:36:00,
2013-05-14 21:41:00,81.4,54.8,29.64,ESE,111,4.6,4.6,40,0.00,CLR,SKC,0.00,WeatherDisplay:10.37,2013-05-15 02:41:00,
2013-05-14 21:46:00,80.9,55.0,29.64,SE,127,5.3,5.3,41,0.00,CLR,SKC,0.00,WeatherDisplay:10.37,2013-05-15 02:46:00,
2013-05-14 21:51:00,80.7,54.1,29.64,South,186,9.5,9.5,40,0.00,CLR,SKC,0.00,WeatherDisplay:10.37,2013-05-15 02:51:00,
2013-05-14 21:56:00,80.6,54.0,29.64,SSE,151,6.4,6.4,40,0.00,CLR,SKC,0.00,WeatherDisplay:10.37,2013-05-15 02:56:00,
2013-05-14 22:01:00,80.3,53.8,29.64,ESE,115,8.5,8.5,40,0.00,CLR,SKC,0.00,WeatherDisplay:10.37,2013-05-15 03:01:00,
2013-05-14 22:06:00,80.1,53.6,29.64,ESE,108,6.9,6.9,40,0.00,CLR,SKC,0.00,WeatherDisplay:10.37,2013-05-15 03:06:00,
2013-05-14 22:11:00,79.9,53.4,29.65,SE,133,6.9,6.9,40,0.00,CLR,SKC,0.00,WeatherDisplay:10.37,2013-05-15 03:11:00,
2013-05-14 22:16:00,80.0,52.8,29.65,SE,124,12.7,12.7,39,0.00,CLR,SKC,0.00,WeatherDisplay:10.37,2013-05-15 03:16:00,
2013-05-14 22:21:00,80.0,52.8,29.65,ESE,107,5.8,5.8,39,0.00,CLR,SKC,0.00,WeatherDisplay:10.37,2013-05-15 03:21:00,
2013-05-14 22:26:00,79.7,52.5,29.65,East,94,6.9,6.9,39,0.00,CLR,SKC,0.00,WeatherDisplay:10.37,2013-05-15 03:26:00,
2013-05-14 22:31:00,79.7,51.8,29.65,ESE,117,10.4,10.4,38,0.00,CLR,SKC,0.00,WeatherDisplay:10.37,2013-05-15 03:31:00,
2013-05-14 22:36:00,79.7,51.8,29.65,ESE,118,10.6,10.6,38,0.00,CLR,SKC,0.00,WeatherDisplay:10.37,2013-05-15 03:36:00,
2013-05-14 22:41:00,79.5,51.7,29.65,ENE,67,6.4,6.4,38,0.00,CLR,SKC,0.00,WeatherDisplay:10.37,2013-05-15 03:41:00,
2013-05-14 22:46:00,79.3,51.5,29.65,South,182,6.9,6.9,38,0.00,CLR,SKC,0.00,WeatherDisplay:10.37,2013-05-15 03:46:00,
2013-05-14 22:51:00,79.3,51.5,29.65,NNE,20,5.8,5.8,38,0.00,CLR,SKC,0.00,WeatherDisplay:10.37,2013-05-15 03:51:00,
2013-05-14 22:56:00,79.2,51.4,29.65,SSE,149,6.9,6.9,38,0.00,CLR,SKC,0.00,WeatherDisplay:10.37,2013-05-15 03:56:00,
2013-05-14 23:01:00,78.9,51.1,29.66,ESE,103,3.5,3.5,38,0.00,CLR,SKC,0.00,WeatherDisplay:10.37,2013-05-15 04:01:00,
2013-05-14 23:06:00,78.6,50.9,29.65,SSE,153,6.9,6.9,38,0.00,CLR,SKC,0.00,WeatherDisplay:10.37,2013-05-15 04:06:00,
2013-05-14 23:11:00,78.4,51.4,29.65,East,84,4.6,4.6,39,0.00,CLR,SKC,0.00,WeatherDisplay:10.37,2013-05-15 04:11:00,
2013-05-14 23:16:00,78.2,51.2,29.65,ESE,116,9.5,9.5,39,0.00,CLR,SKC,0.00,WeatherDisplay:10.37,2013-05-15 04:16:00,
2013-05-14 23:21:00,78.1,51.1,29.65,SE,132,6.9,6.9,39,0.00,CLR,SKC,0.00,WeatherDisplay:10.37,2013-05-15 04:21:00,
2013-05-14 23:26:00,78.0,51.0,29.65,SE,128,5.8,5.8,39,0.00,CLR,SKC,0.00,WeatherDisplay:10.37,2013-05-15 04:26:00,
2013-05-14 23:31:00,77.9,51.6,29.65,ESE,108,6.9,6.9,40,0.00,CLR,SKC,0.00,WeatherDisplay:10.37,2013-05-15 04:31:00,
2013-05-14 23:37:00,77.7,51.5,29.65,NE,53,6.4,6.4,40,0.00,CLR,SKC,0.00,WeatherDisplay:10.37,2013-05-15 04:37:00,
2013-05-14 23:42:00,77.6,51.4,29.66,ENE,74,7.4,7.4,40,0.00,CLR,SKC,0.00,WeatherDisplay:10.37,2013-05-15 04:42:00,
2013-05-14 23:47:00,77.4,51.9,29.68,WSW,240,10.6,10.6,41,0.00,CLR,SKC,0.00,WeatherDisplay:10.37,2013-05-15 04:47:00,
2013-05-14 23:52:00,76.6,51.8,29.68,WNW,285,7.4,7.4,42,0.00,CLR,SKC,0.00,WeatherDisplay:10.37,2013-05-15 04:52:00,
2013-05-14 23:57:00,76.8,52.0,29.68,SSW,204,9.2,9.2,42,0.00,CLR,SKC,0.00,WeatherDisplay:10.37,2013-05-15 04:57:00,